Grand Junction, CO

5:23 PM MDT on August 30, 2014 (GMT -0600)
Spring Valley | Change Station
CLOSE
Current Station
Personal Weather Station
Location: Grand Junction, CO
Elevation: 4731 ft
Nearby Weather Stations

Elev 4731 ft 39.10 °N, 108.54 °W | Updated 10 minutes ago

Clear
Clear
83.2 °F
Feels Like 81 °F
N
1.0
Wind Variable Wind from NNW
Gusts 4.0 mph

Today
High -- | Low -- °F
--% Chance of Precip.
Yesterday
High -- | Low -- °F
Precip. -- in
6:41 AM 7:47 PM
Waxing Crescent, 25% visible
Pressure 29.77 in
Visibility 10.0 miles
Clouds Clear
Heat Index 81 °F
Dew Point 48 °F
Humidity 29%
Rainfall 0.00 in
Snow Depth Not available.
UV 4 out of 12
Pollen 10.20 out of 12
Air Quality Not available.
Flu Activity Not available.
METAR KGJT 302253Z 33005KT 10SM CLR 27/06 A2995 RMK AO2 SLP079 T02720061

More Conditions Fewer Conditions

Pressure 29.77 in
Visibility 10.0 miles
Clouds Clear
Heat Index 81 °F
Dew Point 48 °F
Humidity 29%
Rainfall 0.00 in
Snow Depth Not available.
UV 4 out of 12
Pollen 10.20 out of 12
Air Quality Not available.
Flu Activity Not available.
METAR KGJT 302253Z 33005KT 10SM CLR 27/06 A2995 RMK AO2 SLP079 T02720061

More Conditions Fewer Conditions

10-Day Weather Forecast

Almanac

Astronomy

Aug. 30, 2014 Rise Set
Actual Time 6:41 AM MDT 7:47 PM MDT
Civil Twilight 6:13 AM MDT 8:15 PM MDT
Nautical Twilight 5:40 AM MDT 8:47 PM MDT
Astronomical Twilight 5:06 AM MDT 9:21 PM MDT
Moon 11:29 AM MDT 10:26 PM MDT
Length of Visible Light 14h 01m
Length of Day
13h 06m
Tomorrow will be 2m 26s shorter.
Waxing Crescent, 25% of the Moon is Illuminated
Today
Waxing Crescent
Sep 2
First Quarter
Sep 8
Full
Sep 15
Last Quarter
Sep 24
New

Today's Extremes

State Highs State Lows

Community

WunderPhotos

Upload Photos

1,748,676 photos uploaded!

Nearby

Snow Depth

Station Depth Elevation
Overland Reservoir 0 in 9880 ft
North Lost Trail 0 in 9200 ft
Lone Cone 7 in 9600 ft
Red Mountain Pass 0 in 11150 ft
Independence Pass 188 in 10600 ft

Earthquake Activity

City Distance Mag. Time & Date
No recent earthquake activity has been reported nearby.
Minimum magnitude displayed is 2.5.

Coastal Water Temperatures

Place Temperature
No Stations Reporting

Nearby Weather Stations